Time;durP1;ratioP1;P1;durP2;ratioP2;P2;SDS_P1;SDS_P2;PMS_P1;PMS_P2;Temp;Humidity;BMP_temperature;BMP_pressure;BME280_temperature;BME280_humidity;BME280_pressure;Samples;Min_cycle;Max_cycle;Signal;HPM_P1;HPM_P2
2022/06/09 00:02:04;;;;;;;3.17;1.42;;;17.60;82.20;;;;;;5084307;28;20036;-64
2022/06/09 00:04:34;;;;;;;2.15;1.95;;;17.60;82.10;;;;;;5079447;28;20023;-64
2022/06/09 00:07:08;;;;;;;3.58;1.85;;;17.60;82.00;;;;;;5098536;28;20112;-65
2022/06/09 00:09:40;;;;;;;3.25;1.80;;;17.50;82.00;;;;;;5082855;28;20028;-65
2022/06/09 00:12:07;;;;;;;2.25;1.73;;;17.50;82.00;;;;;;5086977;28;20103;-65
2022/06/09 00:14:33;;;;;;;2.00;1.30;;;17.40;82.10;;;;;;5086486;28;20074;-65
2022/06/09 00:16:59;;;;;;;4.25;1.70;;;17.50;82.20;;;;;;5093599;28;20498;-65
2022/06/09 00:19:25;;;;;;;2.33;1.55;;;17.40;82.10;;;;;;5074167;28;20402;-65
2022/06/09 00:21:51;;;;;;;8.30;1.58;;;17.40;82.10;;;;;;5087017;28;20403;-63
2022/06/09 00:24:17;;;;;;;4.30;1.88;;;17.40;82.10;;;;;;5092353;28;20038;-63
2022/06/09 00:26:43;;;;;;;1.58;0.80;;;17.40;82.10;;;;;;5082764;28;20043;-64
2022/06/09 00:29:09;;;;;;;2.03;1.83;;;17.30;82.10;;;;;;5075291;28;20399;-64
2022/06/09 00:31:35;;;;;;;3.03;1.45;;;17.30;82.20;;;;;;5081700;28;20039;-63
2022/06/09 00:34:00;;;;;;;3.08;1.55;;;17.20;82.40;;;;;;5080790;28;20024;-64
2022/06/09 00:36:26;;;;;;;3.25;1.83;;;17.20;82.50;;;;;;5086237;28;20039;-64
2022/06/09 00:38:52;;;;;;;2.63;1.73;;;17.20;82.40;;;;;;5082991;28;20475;-64
2022/06/09 00:41:17;;;;;;;2.50;1.30;;;17.20;82.40;;;;;;5086203;28;20123;-63
2022/06/09 00:43:44;;;;;;;2.30;1.27;;;17.20;82.20;;;;;;5081858;28;20075;-64
2022/06/09 00:46:10;;;;;;;2.55;1.92;;;17.20;82.20;;;;;;5078579;28;20012;-63
2022/06/09 00:48:50;;;;;;;2.20;1.33;;;17.20;82.20;;;;;;5079359;28;20024;-63
2022/06/09 00:51:29;;;;;;;2.85;1.65;;;17.20;82.30;;;;;;5090318;28;20032;-63
2022/06/09 00:54:02;;;;;;;8.73;1.48;;;17.20;82.30;;;;;;5076439;28;20016;-63
2022/06/09 00:56:27;;;;;;;3.15;1.92;;;17.20;82.30;;;;;;5084712;28;20481;-63
2022/06/09 00:58:55;;;;;;;3.10;1.45;;;17.20;82.20;;;;;;5072405;28;20209;-63
2022/06/09 01:01:23;;;;;;;3.58;1.58;;;17.10;82.20;;;;;;5079018;28;20563;-63
2022/06/09 01:04:01;;;;;;;2.00;1.42;;;17.10;82.30;;;;;;5092135;28;20036;-63
2022/06/09 01:06:32;;;;;;;4.32;1.65;;;17.10;82.40;;;;;;5088832;28;20040;-63
2022/06/09 01:09:11;;;;;;;4.32;1.25;;;17.10;82.40;;;;;;5081631;28;20673;-64
2022/06/09 01:11:37;;;;;;;1.20;1.05;;;17.10;82.40;;;;;;5088202;28;20114;-64
2022/06/09 01:14:05;;;;;;;1.60;1.13;;;17.10;82.40;;;;;;5075520;28;20364;-64
2022/06/09 01:16:41;;;;;;;7.00;1.55;;;17.10;82.30;;;;;;5081705;28;20042;-63
2022/06/09 01:19:29;;;;;;;2.78;1.48;;;17.10;82.30;;;;;;5074229;28;20028;-64
2022/06/09 01:22:23;;;;;;;4.13;1.42;;;17.10;82.30;;;;;;5081160;28;20454;-64
2022/06/09 01:25:29;;;;;;;1.33;1.23;;;17.10;82.50;;;;;;5088435;28;20055;-64
2022/06/09 01:28:16;;;;;;;0.82;0.80;;;17.00;82.50;;;;;;5092539;28;20455;-64
2022/06/09 01:30:49;;;;;;;2.28;1.48;;;16.90;82.60;;;;;;5073468;28;20028;-63
2022/06/09 01:33:38;;;;;;;1.80;1.10;;;16.90;82.80;;;;;;5091190;28;20027;-64
2022/06/09 01:36:11;;;;;;;7.25;1.73;;;16.90;82.90;;;;;;5077609;28;20045;-64
2022/06/09 01:38:48;;;;;;;2.60;1.40;;;16.90;82.90;;;;;;5081547;28;20106;-64
2022/06/09 01:41:17;;;;;;;0.93;0.93;;;16.90;83.00;;;;;;5095183;28;20028;-63
2022/06/09 01:43:46;;;;;;;1.25;1.15;;;16.90;82.90;;;;;;5085422;28;20038;-63
2022/06/09 01:46:25;;;;;;;3.42;1.08;;;16.90;82.90;;;;;;5077562;28;20032;-64
2022/06/09 01:48:55;;;;;;;1.67;1.20;;;16.90;82.80;;;;;;5085365;28;20491;-63
2022/06/09 01:51:24;;;;;;;1.42;1.02;;;16.90;82.90;;;;;;5077891;28;20103;-63
2022/06/09 01:54:04;;;;;;;2.42;1.65;;;16.80;82.80;;;;;;5082514;28;20034;-64
2022/06/09 01:56:49;;;;;;;3.03;1.38;;;16.90;82.90;;;;;;5087316;28;20034;-63
2022/06/09 01:59:54;;;;;;;6.65;1.23;;;16.90;82.90;;;;;;5089109;28;20069;-63
2022/06/09 02:02:26;;;;;;;5.28;1.65;;;16.80;82.90;;;;;;5077348;28;20051;-64
2022/06/09 02:04:58;;;;;;;2.08;1.05;;;16.80;83.00;;;;;;5077126;28;20051;-63
2022/06/09 02:07:27;;;;;;;2.75;1.42;;;16.80;83.10;;;;;;5094693;28;20059;-64
2022/06/09 02:09:53;;;;;;;2.05;1.42;;;16.70;83.20;;;;;;5088723;28;20080;-64
2022/06/09 02:12:23;;;;;;;6.32;1.48;;;16.80;83.10;;;;;;5093183;28;20043;-63
2022/06/09 02:14:53;;;;;;;1.55;1.15;;;16.80;83.00;;;;;;5081549;28;20028;-63
2022/06/09 02:17:19;;;;;;;2.25;1.50;;;16.80;82.90;;;;;;5088853;28;20058;-62
2022/06/09 02:19:47;;;;;;;1.52;1.27;;;16.80;82.80;;;;;;5080173;28;20126;-64
2022/06/09 02:22:13;;;;;;;3.75;1.30;;;16.80;82.80;;;;;;5085739;28;20573;-64
2022/06/09 02:24:39;;;;;;;2.63;1.35;;;16.80;82.80;;;;;;5073729;28;20046;-64
2022/06/09 02:27:05;;;;;;;1.30;1.20;;;16.80;82.80;;;;;;5075426;28;20100;-63
2022/06/09 02:29:32;;;;;;;4.38;1.98;;;16.80;82.70;;;;;;5076081;28;20506;-64
2022/06/09 02:31:57;;;;;;;1.50;1.00;;;16.70;82.60;;;;;;5074083;28;20031;-63
2022/06/09 02:34:23;;;;;;;1.73;1.52;;;16.80;82.60;;;;;;5070649;28;20395;-63
2022/06/09 02:36:49;;;;;;;1.83;1.30;;;16.70;82.50;;;;;;5070015;28;20033;-63
2022/06/09 02:39:15;;;;;;;2.25;1.23;;;16.70;82.40;;;;;;5085583;28;20035;-63
2022/06/09 02:41:40;;;;;;;1.27;1.17;;;16.70;82.40;;;;;;5091942;28;20111;-63
2022/06/09 02:44:06;;;;;;;1.38;1.10;;;16.70;82.20;;;;;;5082469;28;20044;-63
2022/06/09 02:46:32;;;;;;;2.25;1.63;;;16.70;82.10;;;;;;5091007;28;20449;-63
2022/06/09 02:48:59;;;;;;;5.90;1.33;;;16.70;82.10;;;;;;5081711;28;20024;-63
2022/06/09 02:51:28;;;;;;;2.53;1.65;;;16.60;82.00;;;;;;5075757;28;20483;-64
2022/06/09 02:53:55;;;;;;;3.25;1.52;;;16.60;82.00;;;;;;5080028;28;20412;-64
2022/06/09 02:56:21;;;;;;;0.95;0.75;;;16.60;82.00;;;;;;5094870;28;20031;-64
2022/06/09 02:58:47;;;;;;;5.07;1.00;;;16.50;81.90;;;;;;5092710;28;20062;-64
2022/06/09 03:01:13;;;;;;;1.17;1.00;;;16.50;82.00;;;;;;5088520;28;20176;-64
2022/06/09 03:03:39;;;;;;;1.20;1.10;;;16.50;82.00;;;;;;5083801;28;20431;-64
2022/06/09 03:06:04;;;;;;;9.18;1.83;;;16.50;82.00;;;;;;5089647;28;20028;-64
2022/06/09 03:08:31;;;;;;;1.67;1.38;;;16.40;81.90;;;;;;5090401;28;20438;-63
2022/06/09 03:10:57;;;;;;;2.38;1.05;;;16.50;81.90;;;;;;5076230;28;20075;-64
2022/06/09 03:13:23;;;;;;;3.70;1.80;;;16.50;82.00;;;;;;5079391;28;20028;-64
2022/06/09 03:15:50;;;;;;;5.60;1.63;;;16.50;82.10;;;;;;5081858;28;20047;-64
2022/06/09 03:18:17;;;;;;;3.20;1.80;;;16.50;82.00;;;;;;5077431;28;20028;-64
2022/06/09 03:20:43;;;;;;;1.50;0.93;;;16.50;82.10;;;;;;5105053;28;20092;-64
2022/06/09 03:23:09;;;;;;;1.15;1.05;;;16.50;82.30;;;;;;5081313;28;20016;-64
2022/06/09 03:25:35;;;;;;;2.15;1.20;;;16.50;82.40;;;;;;5091248;28;20479;-64
2022/06/09 03:28:00;;;;;;;5.10;1.40;;;16.50;82.40;;;;;;5077205;28;20135;-64
2022/06/09 03:30:26;;;;;;;1.92;1.38;;;16.40;82.40;;;;;;5069982;28;20174;-64
2022/06/09 03:32:52;;;;;;;1.52;1.20;;;16.50;82.50;;;;;;5082134;28;20031;-64
2022/06/09 03:35:18;;;;;;;3.22;1.40;;;16.40;82.40;;;;;;5096144;28;20046;-64
2022/06/09 03:37:44;;;;;;;2.72;1.85;;;16.40;82.50;;;;;;5088157;28;20491;-64
2022/06/09 03:40:15;;;;;;;3.42;1.73;;;16.40;82.60;;;;;;5085496;28;20631;-64
2022/06/09 03:42:41;;;;;;;2.72;1.35;;;16.40;82.80;;;;;;5085791;28;20118;-64
2022/06/09 03:45:07;;;;;;;1.70;1.15;;;16.40;82.80;;;;;;5080018;28;20111;-64
2022/06/09 03:47:33;;;;;;;2.85;1.00;;;16.40;82.80;;;;;;5087435;28;20066;-63
2022/06/09 03:49:59;;;;;;;1.60;1.27;;;16.50;82.80;;;;;;5085213;28;20028;-64
2022/06/09 03:52:24;;;;;;;3.72;1.80;;;16.50;82.80;;;;;;5084372;28;20107;-64
2022/06/09 03:54:50;;;;;;;3.92;1.60;;;16.50;82.70;;;;;;5091322;28;20050;-63
2022/06/09 03:57:16;;;;;;;3.97;1.20;;;16.50;82.70;;;;;;5086844;28;20028;-63
2022/06/09 03:59:41;;;;;;;1.40;1.20;;;16.60;82.70;;;;;;5081524;28;20054;-63
2022/06/09 04:02:07;;;;;;;1.65;1.15;;;16.60;82.70;;;;;;5078526;28;20043;-64
2022/06/09 04:04:33;;;;;;;1.48;1.15;;;16.60;82.70;;;;;;5081101;28;20546;-63
2022/06/09 04:06:59;;;;;;;2.58;1.63;;;16.60;82.70;;;;;;5076519;28;20044;-64
2022/06/09 04:09:25;;;;;;;3.13;1.50;;;16.60;82.80;;;;;;5078393;28;20025;-64
2022/06/09 04:11:51;;;;;;;1.17;0.82;;;16.70;82.80;;;;;;5070384;28;20433;-64
2022/06/09 04:14:16;;;;;;;2.10;1.10;;;16.70;82.70;;;;;;5083475;28;20038;-64
2022/06/09 04:16:44;;;;;;;1.65;1.10;;;16.70;82.60;;;;;;5083955;28;20035;-63
2022/06/09 04:19:12;;;;;;;1.45;1.25;;;16.80;82.70;;;;;;5086647;28;20030;-63
2022/06/09 04:21:39;;;;;;;1.83;1.45;;;16.70;82.80;;;;;;5085176;28;20036;-63
2022/06/09 04:24:05;;;;;;;2.25;1.58;;;16.70;82.90;;;;;;5082129;28;20028;-63
2022/06/09 04:26:35;;;;;;;3.47;1.27;;;16.70;83.00;;;;;;5081264;28;20017;-62
2022/06/09 04:29:01;;;;;;;3.83;1.65;;;16.80;83.10;;;;;;5078718;28;20023;-63
2022/06/09 04:31:27;;;;;;;1.60;1.20;;;16.80;83.10;;;;;;5078977;28;20063;-64
2022/06/09 04:33:52;;;;;;;2.35;1.15;;;16.80;83.10;;;;;;5076388;28;20071;-62
2022/06/09 04:36:19;;;;;;;1.98;1.25;;;16.90;83.10;;;;;;5081579;28;20106;-63
2022/06/09 04:38:46;;;;;;;2.63;1.48;;;16.90;83.00;;;;;;5079700;28;20470;-63
2022/06/09 04:41:13;;;;;;;5.72;1.90;;;17.00;83.00;;;;;;5073711;28;20016;-63
2022/06/09 04:43:41;;;;;;;2.35;1.65;;;17.00;82.90;;;;;;5069815;28;20024;-64
2022/06/09 04:46:09;;;;;;;2.67;1.65;;;17.00;83.00;;;;;;5073615;28;20131;-63
2022/06/09 04:48:36;;;;;;;1.58;1.10;;;17.00;83.10;;;;;;5071924;28;20027;-64
2022/06/09 04:51:09;;;;;;;3.88;1.83;;;17.10;83.00;;;;;;5072502;28;20085;-64
2022/06/09 04:53:35;;;;;;;1.63;0.75;;;17.10;82.90;;;;;;5083616;28;20035;-63
2022/06/09 04:56:00;;;;;;;6.13;1.50;;;17.10;82.80;;;;;;5079593;28;20089;-63
2022/06/09 04:58:26;;;;;;;3.55;1.60;;;17.20;82.60;;;;;;5080402;28;20036;-63
2022/06/09 05:00:52;;;;;;;1.77;1.15;;;17.30;82.50;;;;;;5083731;28;20072;-63
2022/06/09 05:03:20;;;;;;;4.18;1.73;;;17.30;82.40;;;;;;5083242;28;20028;-63
2022/06/09 05:05:47;;;;;;;1.73;1.08;;;17.40;82.20;;;;;;5081678;28;20115;-63
2022/06/09 05:08:13;;;;;;;5.95;1.25;;;17.40;82.30;;;;;;5069885;28;20078;-63
2022/06/09 05:10:41;;;;;;;1.40;0.95;;;17.30;82.20;;;;;;5074500;28;20441;-63
2022/06/09 05:13:08;;;;;;;2.03;1.33;;;17.30;82.30;;;;;;5072967;28;20027;-63
2022/06/09 05:15:38;;;;;;;7.93;1.60;;;17.30;82.20;;;;;;5085863;28;20043;-63
2022/06/09 05:18:04;;;;;;;1.90;1.42;;;17.30;82.30;;;;;;5076323;28;20028;-64
2022/06/09 05:20:30;;;;;;;1.75;0.90;;;17.30;82.30;;;;;;5089685;28;20032;-63
2022/06/09 05:22:56;;;;;;;2.47;1.38;;;17.40;82.20;;;;;;5087105;28;20063;-63
2022/06/09 05:25:22;;;;;;;1.75;0.85;;;17.40;82.00;;;;;;5086241;28;20521;-63
2022/06/09 05:27:48;;;;;;;3.35;1.05;;;17.50;82.10;;;;;;5077886;28;20546;-64
2022/06/09 05:30:19;;;;;;;3.25;0.82;;;17.50;81.90;;;;;;5081009;28;20059;-64
2022/06/09 05:32:45;;;;;;;1.23;0.68;;;17.50;81.90;;;;;;5088383;28;20517;-64
2022/06/09 05:35:11;;;;;;;1.42;0.80;;;17.60;81.90;;;;;;5079157;28;20031;-64
2022/06/09 05:45:55;;;;;;;1.58;0.98;;;17.70;81.50;;;;;;5071488;28;20170;-64
2022/06/09 05:48:21;;;;;;;1.85;1.02;;;17.80;81.50;;;;;;5077356;28;20103;-65
2022/06/09 05:50:47;;;;;;;1.40;1.30;;;17.80;81.30;;;;;;5087602;28;20032;-64
2022/06/09 05:53:13;;;;;;;1.73;1.00;;;17.80;81.20;;;;;;5082198;28;20500;-63
2022/06/09 05:55:38;;;;;;;0.70;0.70;;;17.80;81.40;;;;;;5096360;28;20478;-64
2022/06/09 05:58:04;;;;;;;1.30;0.85;;;17.80;81.30;;;;;;5090858;28;20035;-64
2022/06/09 06:00:30;;;;;;;4.15;0.80;;;17.90;81.20;;;;;;5089565;28;20069;-64
2022/06/09 06:02:57;;;;;;;1.98;0.90;;;17.90;81.20;;;;;;5084039;28;20036;-65
2022/06/09 06:08:07;;;;;;;2.88;0.70;;;18.00;81.00;;;;;;5088851;28;20150;-63
2022/06/09 06:10:33;;;;;;;1.88;0.85;;;18.00;80.90;;;;;;5090599;28;20126;-63
2022/06/09 06:12:59;;;;;;;0.90;0.77;;;18.00;81.00;;;;;;5083388;28;20060;-63
2022/06/09 06:15:25;;;;;;;2.80;0.90;;;18.10;80.80;;;;;;5082125;28;20522;-63
2022/06/09 06:17:54;;;;;;;1.48;0.93;;;18.20;80.80;;;;;;5076034;28;20082;-64
2022/06/09 06:20:20;;;;;;;0.73;0.70;;;18.30;80.60;;;;;;5085176;28;20029;-63
2022/06/09 06:22:46;;;;;;;1.98;0.85;;;18.40;80.40;;;;;;5088642;28;20052;-63
2022/06/09 06:25:12;;;;;;;0.65;0.60;;;18.50;80.10;;;;;;5087350;28;20461;-63
2022/06/09 06:27:38;;;;;;;1.48;1.05;;;18.50;79.80;;;;;;5086705;28;20474;-63
2022/06/09 06:30:05;;;;;;;0.73;0.73;;;18.60;79.70;;;;;;5082640;28;20027;-63
2022/06/09 06:32:31;;;;;;;2.30;0.77;;;18.60;79.70;;;;;;5083111;28;20380;-63
2022/06/09 06:34:57;;;;;;;1.15;0.93;;;18.60;79.60;;;;;;5094451;28;20031;-63
2022/06/09 06:37:23;;;;;;;2.05;0.63;;;18.60;79.50;;;;;;5095006;28;20032;-63
2022/06/09 06:39:49;;;;;;;0.75;0.60;;;18.60;79.30;;;;;;5088993;28;20065;-63
2022/06/09 06:42:15;;;;;;;2.15;0.70;;;18.70;79.30;;;;;;5078347;28;20475;-63
2022/06/09 06:44:41;;;;;;;5.57;1.40;;;18.70;78.90;;;;;;5087972;28;20066;-64
2022/06/09 06:47:07;;;;;;;0.75;0.75;;;18.70;78.80;;;;;;5090071;28;20568;-63
2022/06/09 06:49:32;;;;;;;1.90;1.02;;;18.80;78.80;;;;;;5085197;28;20245;-64
2022/06/09 06:51:58;;;;;;;4.13;0.95;;;18.80;78.60;;;;;;5089386;28;20090;-63
2022/06/09 06:54:24;;;;;;;0.82;0.47;;;18.90;78.40;;;;;;5082050;28;20036;-63
2022/06/09 06:56:49;;;;;;;2.50;0.75;;;19.00;78.50;;;;;;5089129;28;20039;-63
2022/06/09 06:59:15;;;;;;;3.33;0.70;;;19.00;78.00;;;;;;5096098;28;20031;-63
2022/06/09 07:01:41;;;;;;;0.80;0.68;;;19.00;77.90;;;;;;5093053;28;20063;-63
2022/06/09 07:04:06;;;;;;;0.88;0.60;;;19.00;77.50;;;;;;5081079;28;20077;-63
2022/06/09 07:06:32;;;;;;;2.05;0.77;;;19.10;77.20;;;;;;5083571;28;20036;-63
2022/06/09 07:08:58;;;;;;;0.43;0.43;;;19.00;77.20;;;;;;5090090;28;20031;-64
2022/06/09 07:11:24;;;;;;;1.85;0.50;;;19.10;77.00;;;;;;5076769;28;20398;-63
2022/06/09 07:13:49;;;;;;;0.70;0.70;;;19.20;77.00;;;;;;5079735;28;20565;-63
2022/06/09 07:16:15;;;;;;;0.65;0.55;;;19.20;76.80;;;;;;5086793;28;20539;-63
2022/06/09 07:18:41;;;;;;;1.27;0.60;;;19.30;76.50;;;;;;5077499;28;20095;-62
2022/06/09 07:21:14;;;;;;;1.88;0.90;;;19.40;76.00;;;;;;5091808;28;20027;-63
2022/06/09 07:23:39;;;;;;;0.73;0.73;;;19.50;75.90;;;;;;5083762;28;20026;-63
2022/06/09 07:26:05;;;;;;;0.32;0.30;;;19.50;75.70;;;;;;5070079;28;20024;-62
2022/06/09 07:28:32;;;;;;;4.57;1.05;;;19.50;75.90;;;;;;5081921;28;20274;-65
2022/06/09 07:30:59;;;;;;;0.93;0.68;;;19.50;75.80;;;;;;5093446;28;20066;-66
2022/06/09 07:33:32;;;;;;;0.60;0.60;;;19.70;75.70;;;;;;5077097;28;20483;-64
2022/06/09 07:35:58;;;;;;;2.10;0.60;;;19.80;75.40;;;;;;5076684;28;20380;-63
2022/06/09 07:38:24;;;;;;;5.00;1.10;;;19.90;74.30;;;;;;5076757;28;20031;-62
2022/06/09 07:40:51;;;;;;;0.65;0.65;;;19.90;74.30;;;;;;5083656;28;20262;-62
2022/06/09 07:43:19;;;;;;;0.88;0.85;;;19.90;74.30;;;;;;5083696;28;20020;-63
2022/06/09 07:45:46;;;;;;;1.35;0.65;;;19.80;74.30;;;;;;5082129;28;20028;-62
2022/06/09 07:48:12;;;;;;;0.95;0.95;;;19.90;74.40;;;;;;5081424;28;20356;-64
2022/06/09 07:50:38;;;;;;;1.30;1.20;;;20.00;73.80;;;;;;5065722;28;20037;-63
2022/06/09 07:53:05;;;;;;;2.13;1.17;;;20.00;72.00;;;;;;5071917;28;20033;-62
2022/06/09 07:55:32;;;;;;;2.05;0.70;;;19.90;72.60;;;;;;5078537;28;20486;-63
2022/06/09 07:57:58;;;;;;;0.80;0.80;;;19.80;73.10;;;;;;5079376;28;20435;-62
2022/06/09 08:00:24;;;;;;;1.58;0.55;;;19.90;73.30;;;;;;5075863;28;20118;-64
2022/06/09 08:02:50;;;;;;;1.02;0.93;;;20.00;73.40;;;;;;5073047;28;20044;-62
2022/06/09 08:05:18;;;;;;;0.63;0.63;;;20.30;73.30;;;;;;5080577;28;20024;-63
2022/06/09 08:07:45;;;;;;;0.77;0.70;;;20.40;72.20;;;;;;5083080;28;20028;-64
2022/06/09 08:10:17;;;;;;;0.80;0.77;;;20.60;72.40;;;;;;5090726;28;20024;-63
2022/06/09 08:12:47;;;;;;;2.85;1.00;;;20.70;71.90;;;;;;5070364;28;20024;-64
2022/06/09 08:15:14;;;;;;;0.98;0.82;;;20.60;70.70;;;;;;5078929;28;20085;-63
2022/06/09 08:17:40;;;;;;;1.17;1.08;;;20.70;71.20;;;;;;5071032;28;20052;-63
2022/06/09 08:20:07;;;;;;;0.80;0.80;;;20.70;70.40;;;;;;5073335;28;20031;-63
2022/06/09 08:22:33;;;;;;;1.92;1.23;;;20.80;70.60;;;;;;5082575;28;20027;-63
2022/06/09 08:24:58;;;;;;;1.08;0.70;;;20.90;69.70;;;;;;5069242;28;20487;-64
2022/06/09 08:27:24;;;;;;;0.88;0.82;;;20.90;69.80;;;;;;5066778;28;20024;-63
2022/06/09 08:29:51;;;;;;;0.68;0.50;;;20.80;69.40;;;;;;5077222;28;20554;-61
2022/06/09 08:32:17;;;;;;;0.80;0.80;;;20.80;70.10;;;;;;5085428;28;20038;-63
2022/06/09 08:34:43;;;;;;;1.20;1.10;;;20.70;70.40;;;;;;5083255;28;20021;-63
2022/06/09 08:37:09;;;;;;;0.90;0.90;;;20.70;69.80;;;;;;5078365;28;20032;-62
2022/06/09 08:39:35;;;;;;;0.90;0.90;;;20.70;70.10;;;;;;5077255;28;20063;-63
2022/06/09 08:42:25;;;;;;;1.08;0.95;;;20.60;70.30;;;;;;5077823;28;20025;-63
2022/06/09 08:45:03;;;;;;;1.17;0.70;;;20.60;70.80;;;;;;5077771;28;20545;-63
2022/06/09 08:47:43;;;;;;;1.05;0.95;;;20.70;71.00;;;;;;5071469;28;20271;-63
2022/06/09 08:50:12;;;;;;;0.98;0.70;;;20.80;70.60;;;;;;5090187;28;20028;-64
2022/06/09 08:52:51;;;;;;;1.40;1.02;;;20.80;70.40;;;;;;5069586;28;20032;-63
2022/06/09 08:55:27;;;;;;;0.80;0.75;;;20.80;70.40;;;;;;5066749;28;20036;-62
2022/06/09 08:58:05;;;;;;;0.70;0.70;;;20.80;70.70;;;;;;5075760;28;20112;-63
2022/06/09 09:00:36;;;;;;;0.73;0.73;;;20.80;70.80;;;;;;5066479;28;20025;-63
2022/06/09 09:03:28;;;;;;;2.25;1.17;;;20.80;70.20;;;;;;5068375;28;20028;-63
2022/06/09 09:06:25;;;;;;;0.88;0.88;;;20.70;70.00;;;;;;5071840;28;20060;-63
2022/06/09 09:08:55;;;;;;;1.00;0.90;;;20.70;69.80;;;;;;5077357;28;20526;-62
2022/06/09 09:11:57;;;;;;;0.73;0.73;;;20.60;69.30;;;;;;5095211;28;20020;-63
2022/06/09 09:14:42;;;;;;;1.00;0.70;;;20.70;69.20;;;;;;5084732;28;20031;-63
2022/06/09 09:17:53;;;;;;;0.93;0.80;;;20.70;68.50;;;;;;5087929;28;20426;-63
2022/06/09 09:20:35;;;;;;;0.68;0.50;;;20.70;67.30;;;;;;5025532;28;20099;-63
2022/06/09 09:23:13;;;;;;;0.40;0.40;;;20.80;67.80;;;;;;5088879;28;20527;-63
2022/06/09 09:26:00;;;;;;;0.52;0.52;;;20.90;68.30;;;;;;5095009;28;20474;-63
2022/06/09 09:28:32;;;;;;;0.60;0.60;;;20.90;67.60;;;;;;5083104;28;20032;-63
2022/06/09 09:31:11;;;;;;;0.80;0.50;;;20.80;67.50;;;;;;5080766;28;20521;-63
2022/06/09 09:33:36;;;;;;;1.75;0.95;;;20.70;67.80;;;;;;5075740;28;20028;-64
2022/06/09 09:36:10;;;;;;;1.25;0.70;;;20.90;68.00;;;;;;5094389;28;20051;-63
2022/06/09 09:38:44;;;;;;;1.77;0.70;;;21.20;68.00;;;;;;5085204;28;20027;-63
2022/06/09 09:41:33;;;;;;;2.05;0.85;;;21.40;66.90;;;;;;5092968;28;20036;-63
2022/06/09 09:44:00;;;;;;;1.13;0.82;;;21.70;66.80;;;;;;5071857;28;20394;-63
2022/06/09 09:46:31;;;;;;;1.92;0.70;;;21.80;66.20;;;;;;5089272;28;20033;-65
2022/06/09 09:49:00;;;;;;;2.63;0.77;;;21.80;65.80;;;;;;5079438;28;20550;-64
2022/06/09 09:51:35;;;;;;;0.50;0.50;;;21.80;66.10;;;;;;5088693;28;20016;-65
2022/06/09 09:54:09;;;;;;;1.05;0.95;;;21.80;66.30;;;;;;5085918;28;20031;-63
2022/06/09 09:56:37;;;;;;;0.40;0.40;;;21.80;65.90;;;;;;5089322;28;20047;-63
2022/06/09 09:59:25;;;;;;;0.60;0.60;;;21.90;65.90;;;;;;5083236;28;20100;-64
2022/06/09 10:10:26;;;;;;;1.95;0.50;;;22.10;66.30;;;;;;5087914;28;20031;-63
2022/06/09 10:12:56;;;;;;;0.63;0.40;;;21.60;66.70;;;;;;5076835;28;20467;-63
2022/06/09 10:15:26;;;;;;;0.30;0.30;;;21.10;67.90;;;;;;5086275;28;20540;-63
2022/06/09 10:18:07;;;;;;;0.38;0.38;;;20.70;68.70;;;;;;5083744;28;20529;-62
2022/06/09 10:20:43;;;;;;;1.65;0.80;;;20.40;69.60;;;;;;5084869;28;20394;-63
2022/06/09 10:23:16;;;;;;;0.40;0.40;;;20.20;70.40;;;;;;5087259;28;20032;-62
2022/06/09 10:26:02;;;;;;;0.65;0.65;;;20.10;71.30;;;;;;5088558;28;20058;-62
2022/06/09 10:28:55;;;;;;;4.03;1.02;;;20.00;71.70;;;;;;5089701;28;20023;-63
2022/06/09 10:32:05;;;;;;;2.45;1.25;;;19.90;72.10;;;;;;5094302;28;20160;-63
2022/06/09 10:34:48;;;;;;;0.68;0.50;;;19.90;72.60;;;;;;5022328;28;20351;-62
2022/06/09 10:37:28;;;;;;;2.10;1.17;;;19.90;72.90;;;;;;5089026;28;20032;-63
2022/06/09 10:39:57;;;;;;;1.02;0.80;;;19.90;73.10;;;;;;5085515;28;20483;-63
2022/06/09 10:42:26;;;;;;;0.82;0.82;;;20.00;73.30;;;;;;5099061;28;20032;-64
2022/06/09 10:45:02;;;;;;;0.50;0.50;;;20.10;73.40;;;;;;5096881;28;20024;-64
2022/06/09 10:56:49;;;;;;;0.85;0.63;;;20.60;73.20;;;;;;5097067;28;20035;-65
2022/06/09 10:59:22;;;;;;;2.65;0.80;;;20.70;73.20;;;;;;5093644;28;20043;-65
2022/06/09 11:01:47;;;;;;;0.77;0.57;;;20.80;73.40;;;;;;5103028;28;20036;-66
2022/06/09 11:04:17;;;;;;;0.80;0.80;;;20.90;73.40;;;;;;5094195;28;20545;-64
2022/06/09 11:07:01;;;;;;;1.98;1.08;;;20.90;73.50;;;;;;5079180;28;20047;-64
2022/06/09 11:09:44;;;;;;;1.10;0.98;;;21.00;72.90;;;;;;5092496;28;20376;-65
2022/06/09 11:12:43;;;;;;;0.82;0.63;;;21.00;72.80;;;;;;5093303;28;20061;-65
2022/06/09 11:15:36;;;;;;;2.33;0.90;;;21.30;72.70;;;;;;5090375;28;20030;-64
2022/06/09 11:18:23;;;;;;;2.45;1.00;;;21.70;71.90;;;;;;5073473;28;20387;-65
2022/06/09 11:21:18;;;;;;;1.25;1.15;;;21.90;70.90;;;;;;5094786;28;20475;-65
2022/06/09 11:24:05;;;;;;;1.38;0.95;;;21.90;69.80;;;;;;5067785;28;20020;-64
2022/06/09 11:26:37;;;;;;;0.70;0.65;;;22.10;69.50;;;;;;5083546;28;20031;-65
2022/06/09 11:29:38;;;;;;;0.73;0.73;;;22.40;68.00;;;;;;5076791;28;20065;-65
2022/06/09 11:32:11;;;;;;;0.77;0.77;;;22.60;68.00;;;;;;5070440;28;20427;-64
2022/06/09 11:34:42;;;;;;;3.13;0.73;;;22.50;67.90;;;;;;5073881;28;20082;-64
2022/06/09 11:37:35;;;;;;;1.38;0.88;;;22.60;67.60;;;;;;5083897;28;20124;-63
2022/06/09 11:40:07;;;;;;;1.45;0.65;;;22.60;67.00;;;;;;5076490;28;20490;-62
2022/06/09 11:42:41;;;;;;;0.50;0.50;;;22.40;66.40;;;;;;5078294;28;20844;-63
2022/06/09 11:45:42;;;;;;;1.95;0.90;;;22.20;66.60;;;;;;5068731;28;20278;-63
2022/06/09 11:48:18;;;;;;;3.58;0.68;;;21.90;66.70;;;;;;5022983;28;20059;-62
2022/06/09 11:50:45;;;;;;;0.50;0.50;;;21.80;67.10;;;;;;5063886;28;20039;-63
2022/06/09 11:53:21;;;;;;;1.17;0.70;;;21.80;66.20;;;;;;5086193;28;20493;-63
2022/06/09 11:56:00;;;;;;;0.60;0.60;;;22.00;64.00;;;;;;5094173;28;20032;-63
2022/06/09 11:58:32;;;;;;;0.60;0.60;;;22.30;64.20;;;;;;5080208;28;20078;-65
2022/06/09 12:01:13;;;;;;;1.67;0.90;;;22.80;63.00;;;;;;5082245;28;20040;-64
2022/06/09 12:04:12;;;;;;;2.38;0.77;;;23.20;61.00;;;;;;5078504;28;20052;-65
2022/06/09 12:07:15;;;;;;;0.85;0.57;;;23.30;60.90;;;;;;5080618;28;20535;-65
2022/06/09 12:09:40;;;;;;;0.77;0.75;;;23.30;60.70;;;;;;5078161;28;20032;-65
2022/06/09 12:12:38;;;;;;;1.30;0.75;;;23.20;59.80;;;;;;5083933;28;20024;-64
2022/06/09 12:15:28;;;;;;;0.45;0.45;;;23.50;59.70;;;;;;5079957;28;20016;-65
2022/06/09 12:18:08;;;;;;;0.43;0.43;;;23.80;59.50;;;;;;5093596;28;20275;-65
2022/06/09 12:20:42;;;;;;;2.85;0.88;;;24.20;59.20;;;;;;5089030;28;20031;-65
2022/06/09 12:23:08;;;;;;;5.05;0.90;;;24.40;57.00;;;;;;5078390;28;20027;-65
2022/06/09 12:25:36;;;;;;;2.63;0.65;;;24.50;57.10;;;;;;5083607;28;20008;-66
2022/06/09 12:28:22;;;;;;;1.02;0.63;;;24.80;57.00;;;;;;5084881;28;20043;-65
2022/06/09 12:31:07;;;;;;;1.95;0.80;;;25.10;55.60;;;;;;5089194;28;20028;-64
2022/06/09 12:33:34;;;;;;;1.58;0.70;;;25.20;54.20;;;;;;5081757;28;20032;-66
2022/06/09 12:36:08;;;;;;;1.05;0.98;;;25.30;53.10;;;;;;5080290;28;20030;-65
2022/06/09 12:38:50;;;;;;;0.82;0.60;;;25.30;52.50;;;;;;5083626;28;20043;-64
2022/06/09 12:41:34;;;;;;;0.57;0.57;;;24.90;53.10;;;;;;5076504;28;20050;-66
2022/06/09 12:44:14;;;;;;;0.93;0.70;;;24.60;53.90;;;;;;5084717;28;20484;-63
2022/06/09 12:46:42;;;;;;;1.33;0.70;;;24.30;53.80;;;;;;5092445;28;20498;-62
2022/06/09 12:49:22;;;;;;;1.00;0.80;;;24.20;53.80;;;;;;5079612;28;20013;-63
2022/06/09 12:51:48;;;;;;;0.70;0.55;;;24.40;52.40;;;;;;5070855;28;20116;-65
2022/06/09 12:54:49;;;;;;;2.05;0.77;;;24.60;50.00;;;;;;5089274;28;20103;-65
2022/06/09 12:57:23;;;;;;;1.95;0.60;;;24.80;50.30;;;;;;5094312;28;20036;-66
2022/06/09 13:00:22;;;;;;;2.05;0.70;;;25.10;48.50;;;;;;5091699;28;20391;-65
2022/06/09 13:02:49;;;;;;;5.68;1.20;;;25.20;47.70;;;;;;5087796;28;20081;-65
2022/06/09 13:05:27;;;;;;;1.95;0.65;;;25.30;46.30;;;;;;5083047;28;20039;-64
2022/06/09 13:08:03;;;;;;;1.33;0.73;;;25.30;46.70;;;;;;5080097;28;20020;-65
2022/06/09 13:10:38;;;;;;;1.48;0.70;;;25.50;47.60;;;;;;5085015;28;20032;-63
2022/06/09 13:13:15;;;;;;;1.15;0.70;;;25.70;47.10;;;;;;5085413;28;20054;-64
2022/06/09 13:15:52;;;;;;;1.08;0.98;;;26.00;46.80;;;;;;5092223;28;20443;-65
2022/06/09 13:18:25;;;;;;;4.68;1.38;;;26.30;46.30;;;;;;5080596;28;20027;-64
2022/06/09 13:20:52;;;;;;;0.45;0.45;;;26.30;45.50;;;;;;5088788;28;20056;-65
2022/06/09 13:23:19;;;;;;;1.55;0.40;;;26.00;46.70;;;;;;5089259;28;20128;-65
2022/06/09 13:25:46;;;;;;;0.70;0.70;;;25.60;47.50;;;;;;5093552;28;20098;-65
2022/06/09 13:28:48;;;;;;;0.70;0.70;;;25.20;48.30;;;;;;5087121;28;20475;-65
2022/06/09 13:31:37;;;;;;;0.95;0.80;;;24.80;48.90;;;;;;5097095;28;20031;-66
2022/06/09 13:34:26;;;;;;;0.77;0.55;;;24.50;49.60;;;;;;5081900;28;20039;-65
2022/06/09 13:36:55;;;;;;;1.55;0.82;;;24.40;49.90;;;;;;5078710;28;20398;-66
2022/06/09 13:39:46;;;;;;;0.95;0.95;;;24.20;49.70;;;;;;5096532;28;20107;-66
2022/06/09 13:42:18;;;;;;;1.20;0.80;;;24.00;49.40;;;;;;5083344;28;20075;-64